createdAt,value
2019-02-26T00:04:32.145Z,65.66
2019-02-26T00:07:04.833Z,65.61
2019-02-26T00:09:35.017Z,65.60
2019-02-26T00:13:01.695Z,65.46
2019-02-26T00:15:31.305Z,65.79
2019-02-26T00:18:37.569Z,65.73
2019-02-26T00:21:05.093Z,65.90
2019-02-26T00:23:32.202Z,66.12
2019-02-26T00:29:01.850Z,66.28
2019-02-26T00:34:47.705Z,66.46
2019-02-26T00:37:14.874Z,66.76
2019-02-26T00:40:01.906Z,66.73
2019-02-26T00:43:09.884Z,66.69
2019-02-26T00:48:40.700Z,67.03
2019-02-26T00:51:48.277Z,67.84
2019-02-26T00:54:24.503Z,68.12
2019-02-26T00:57:01.039Z,67.99
2019-02-26T00:59:36.385Z,68.12
2019-02-26T01:02:49.622Z,68.45
2019-02-26T01:05:16.938Z,68.61
2019-02-26T01:08:24.997Z,68.80
2019-02-26T01:10:52.194Z,69.14
2019-02-26T01:13:20.306Z,69.36
2019-02-26T01:15:58.124Z,69.60
2019-02-26T01:18:26.771Z,69.99
2019-02-26T01:21:02.519Z,70.49
2019-02-26T01:23:35.552Z,70.62
2019-02-26T01:26:43.637Z,70.78
2019-02-26T01:32:31.219Z,71.06
2019-02-26T01:34:58.390Z,71.02
2019-02-26T01:37:27.715Z,71.01
2019-02-26T01:40:18.253Z,71.23
2019-02-26T01:42:52.426Z,71.48
2019-02-26T01:45:30.350Z,71.41
2019-02-26T01:48:06.292Z,71.48
2019-02-26T01:50:40.650Z,71.60
2019-02-26T01:53:15.156Z,71.78
2019-02-26T01:55:50.538Z,72.07
2019-02-26T01:58:24.293Z,72.23
2019-02-26T02:00:55.327Z,72.31
2019-02-26T02:06:41.327Z,72.67
2019-02-26T02:09:18.134Z,72.59
2019-02-26T02:14:52.547Z,72.96
2019-02-26T02:18:01.773Z,73.47
2019-02-26T02:20:35.579Z,73.44
2019-02-26T02:23:04.694Z,73.66
2019-02-26T02:26:04.214Z,73.83
2019-02-26T02:28:36.389Z,73.83
2019-02-26T02:31:03.708Z,73.82
2019-02-26T02:33:50.390Z,73.91
2019-02-26T02:36:58.476Z,73.86
2019-02-26T02:39:26.602Z,73.84
2019-02-26T02:42:00.838Z,74.08
2019-02-26T02:44:28.006Z,74.13
2019-02-26T02:46:55.242Z,74.24
2019-02-26T02:50:05.586Z,74.13
2019-02-26T02:52:38.549Z,73.98
2019-02-26T02:55:06.878Z,74.06
2019-02-26T02:57:55.960Z,74.22
2019-02-26T03:00:32.174Z,74.39
2019-02-26T03:06:09.694Z,74.57
2019-02-26T03:08:45.291Z,75.05
2019-02-26T03:11:18.879Z,75.10
2019-02-26T03:13:48.370Z,75.30
2019-02-26T03:16:42.488Z,75.33
2019-02-26T03:19:17.024Z,75.34
2019-02-26T03:21:52.589Z,75.46
2019-02-26T03:24:30.235Z,75.59
2019-02-26T03:27:05.523Z,75.68
2019-02-26T03:29:32.773Z,75.77
2019-02-26T03:31:59.916Z,75.91
2019-02-26T03:37:08.958Z,76.29
2019-02-26T03:39:46.439Z,76.69
2019-02-26T03:42:16.670Z,76.76
2019-02-26T03:45:48.074Z,76.84
2019-02-26T03:48:20.882Z,76.83
2019-02-26T03:50:47.998Z,76.94
2019-02-26T03:53:15.172Z,77.02
2019-02-26T04:01:37.842Z,77.48
2019-02-26T04:04:07.581Z,77.59
2019-02-26T04:07:02.115Z,77.66
2019-02-26T04:09:39.115Z,77.82
2019-02-26T04:17:55.985Z,78.15
2019-02-26T04:20:44.338Z,78.10
2019-02-26T04:26:58.641Z,78.12
2019-02-26T04:30:05.917Z,78.32
2019-02-26T04:33:14.046Z,78.61
2019-02-26T04:36:42.783Z,78.79
2019-02-26T04:39:42.900Z,79.16
2019-02-26T04:42:59.528Z,79.35
2019-02-26T04:46:10.352Z,79.31
2019-02-26T04:49:16.617Z,79.41
2019-02-26T04:51:45.050Z,79.22
2019-02-26T04:54:33.738Z,78.96
2019-02-26T04:57:12.102Z,78.97
2019-02-26T05:02:52.516Z,78.76
2019-02-26T05:11:00.068Z,77.85
2019-02-26T05:13:48.392Z,77.56
2019-02-26T05:16:15.615Z,77.46
2019-02-26T05:18:45.889Z,77.41
2019-02-26T05:21:49.600Z,77.50
2019-02-26T05:27:50.984Z,77.56
2019-02-26T05:30:21.727Z,77.40
2019-02-26T05:32:57.021Z,77.13
2019-02-26T05:35:28.856Z,76.91
2019-02-26T05:37:58.317Z,76.69
2019-02-26T05:40:45.821Z,76.49
2019-02-26T05:44:03.999Z,76.38
2019-02-26T05:46:36.314Z,76.38
2019-02-26T05:49:05.786Z,76.29
2019-02-26T05:51:53.529Z,76.04
2019-02-26T05:54:52.636Z,75.87
2019-02-26T05:58:07.929Z,75.82
2019-02-26T06:00:42.861Z,75.93
2019-02-26T06:06:11.116Z,75.85
2019-02-26T06:08:39.306Z,75.67
2019-02-26T06:11:17.180Z,75.69
2019-02-26T06:13:52.099Z,75.80
2019-02-26T06:16:21.843Z,76.15
2019-02-26T06:22:31.746Z,76.55
2019-02-26T06:25:09.624Z,76.42
2019-02-26T06:27:39.940Z,76.37
2019-02-26T06:33:34.146Z,75.90
2019-02-26T06:36:21.057Z,75.45
2019-02-26T06:38:49.630Z,75.17
2019-02-26T06:41:39.586Z,74.86
2019-02-26T06:44:15.139Z,74.67
2019-02-26T06:50:18.882Z,73.98
2019-02-26T06:52:51.995Z,72.86
2019-02-26T06:55:19.242Z,68.42
2019-02-26T06:57:49.359Z,63.30
2019-02-26T07:03:26.662Z,57.08
2019-02-26T07:05:53.744Z,54.30
2019-02-26T07:08:23.741Z,52.27
2019-02-26T07:14:18.225Z,46.53
2019-02-26T07:20:00.381Z,40.59
2019-02-26T07:22:34.792Z,39.68
2019-02-26T07:25:16.598Z,40.13
2019-02-26T07:27:43.593Z,41.11
2019-02-26T07:33:15.049Z,37.89
2019-02-26T07:38:49.145Z,30.43
2019-02-26T07:41:27.847Z,27.33
2019-02-26T07:44:00.612Z,25.94
2019-02-26T07:46:27.813Z,23.97
2019-02-26T07:49:14.378Z,22.07
2019-02-26T07:51:43.013Z,20.95
2019-02-26T08:03:24.161Z,18.23
2019-02-26T08:06:12.120Z,17.25
2019-02-26T08:08:48.462Z,16.77
2019-02-26T08:11:20.636Z,16.40
2019-02-26T08:14:21.028Z,15.96
2019-02-26T08:16:51.363Z,15.46
2019-02-26T08:19:29.485Z,14.91
2019-02-26T08:31:23.320Z,14.69
2019-02-26T08:34:13.527Z,14.59
2019-02-26T08:36:46.760Z,14.22
2019-02-26T08:39:20.996Z,14.13
2019-02-26T08:42:08.268Z,13.95
2019-02-26T08:45:17.766Z,13.85
2019-02-26T08:48:02.864Z,13.31
2019-02-26T08:50:33.100Z,13.44
2019-02-26T08:57:00.732Z,14.03
2019-02-26T08:59:27.947Z,13.37
2019-02-26T09:01:55.114Z,13.56
2019-02-26T09:04:23.923Z,13.36
2019-02-26T09:07:11.164Z,13.18
2019-02-26T09:09:52.504Z,12.90
2019-02-26T09:12:19.917Z,13.08
2019-02-26T09:15:50.221Z,13.19
2019-02-26T09:24:54.349Z,15.55
2019-02-26T09:27:32.109Z,16.12
2019-02-26T09:39:15.454Z,27.32
2019-02-26T09:42:46.275Z,29.74
2019-02-26T09:45:22.435Z,31.44
2019-02-26T09:47:55.641Z,33.82
2019-02-26T09:50:29.254Z,35.07
2019-02-26T09:58:37.502Z,37.56
2019-02-26T10:01:45.717Z,38.83
2019-02-26T10:04:26.440Z,39.35
2019-02-26T10:06:53.843Z,39.40
2019-02-26T10:09:21.024Z,39.75
2019-02-26T10:12:10.027Z,40.44
2019-02-26T10:18:31.022Z,41.13
2019-02-26T10:23:54.166Z,40.76
2019-02-26T10:27:21.980Z,41.30
2019-02-26T10:29:49.957Z,40.82
2019-02-26T10:32:38.006Z,40.89
2019-02-26T10:38:10.756Z,40.80
2019-02-26T10:40:57.392Z,40.79
2019-02-26T10:43:34.586Z,40.88
2019-02-26T10:46:01.783Z,40.53
2019-02-26T10:51:32.168Z,40.35
2019-02-26T10:54:00.008Z,40.06
2019-02-26T10:57:18.829Z,40.25
2019-02-26T11:03:35.459Z,40.08
2019-02-26T11:06:01.804Z,40.42
2019-02-26T11:08:32.792Z,40.33
2019-02-26T11:14:08.343Z,40.06
2019-02-26T11:16:46.364Z,40.38
2019-02-26T11:19:55.581Z,40.10
2019-02-26T11:22:44.797Z,39.87
2019-02-26T11:31:31.359Z,39.55
2019-02-26T11:34:01.045Z,39.53
2019-02-26T11:36:36.554Z,39.65
2019-02-26T11:39:10.148Z,39.49
2019-02-26T11:54:20.350Z,38.96
2019-02-26T11:56:49.893Z,38.77
2019-02-26T11:59:38.571Z,38.75
2019-02-26T12:02:12.210Z,38.59
2019-02-26T12:04:39.412Z,38.41
2019-02-26T12:13:08.588Z,37.97
2019-02-26T12:15:38.403Z,37.92
2019-02-26T12:24:17.050Z,37.19
2019-02-26T12:26:45.293Z,37.13
2019-02-26T12:32:24.886Z,36.87
2019-02-26T12:35:33.353Z,36.81
2019-02-26T12:38:17.513Z,36.72
2019-02-26T12:40:46.298Z,36.72
2019-02-26T12:43:21.964Z,36.71
2019-02-26T12:46:02.138Z,36.47
2019-02-26T12:48:30.455Z,36.43
2019-02-26T12:50:58.499Z,36.21
2019-02-26T12:53:44.065Z,36.27
2019-02-26T12:56:20.575Z,36.05
2019-02-26T12:58:54.495Z,35.91
2019-02-26T13:01:33.247Z,35.91
2019-02-26T13:04:09.620Z,35.87
2019-02-26T13:07:22.879Z,35.96
2019-02-26T13:09:54.168Z,35.69
2019-02-26T13:12:38.966Z,35.33
2019-02-26T13:18:09.177Z,34.62
2019-02-26T13:20:59.542Z,34.83
2019-02-26T13:23:31.181Z,35.02
2019-02-26T13:26:51.700Z,35.38
2019-02-26T13:29:25.891Z,35.26
2019-02-26T13:31:56.529Z,35.05
2019-02-26T13:34:28.108Z,35.07
2019-02-26T13:39:56.664Z,35.11
2019-02-26T13:42:50.047Z,35.05
2019-02-26T13:46:00.699Z,34.75
2019-02-26T13:52:33.709Z,34.64
2019-02-26T14:04:03.065Z,34.65
2019-02-26T14:06:30.556Z,34.61
2019-02-26T14:09:17.309Z,34.56
2019-02-26T14:12:25.381Z,34.67
2019-02-26T14:14:52.601Z,34.68
2019-02-26T14:17:21.669Z,34.37
2019-02-26T14:19:49.731Z,33.89
2019-02-26T14:22:57.749Z,34.12
2019-02-26T14:25:24.960Z,34.07
2019-02-26T14:27:52.152Z,33.18
2019-02-26T14:30:19.373Z,32.84
2019-02-26T14:32:46.560Z,33.40
2019-02-26T14:38:27.364Z,32.82
2019-02-26T14:40:54.560Z,31.90
2019-02-26T14:43:21.759Z,31.82
2019-02-26T14:45:49.022Z,32.38
2019-02-26T14:48:16.909Z,31.81
2019-02-26T14:50:44.249Z,31.96
2019-02-26T14:53:11.703Z,31.89
2019-02-26T14:55:39.824Z,32.01
2019-02-26T14:58:07.391Z,32.06
2019-02-26T15:03:28.990Z,32.30
2019-02-26T15:05:56.156Z,32.22
2019-02-26T15:08:23.525Z,32.33
2019-02-26T15:10:50.743Z,32.51
2019-02-26T15:13:18.299Z,32.65
2019-02-26T15:15:45.530Z,32.62
2019-02-26T15:18:12.703Z,32.65
2019-02-26T15:21:20.749Z,32.70
2019-02-26T15:23:48.043Z,32.78
2019-02-26T15:26:15.707Z,32.71
2019-02-26T15:28:43.314Z,32.80
2019-02-26T15:31:13.184Z,33.05
2019-02-26T15:33:40.466Z,33.06
2019-02-26T15:36:07.764Z,33.39
2019-02-26T15:38:35.526Z,33.54
2019-02-26T15:41:04.138Z,33.55
2019-02-26T15:43:31.698Z,33.68
2019-02-26T15:45:59.788Z,33.79
2019-02-26T15:48:47.838Z,33.82
2019-02-26T15:51:19.876Z,34.09
2019-02-26T15:57:05.627Z,34.67
2019-02-26T15:59:52.340Z,35.00
2019-02-26T16:02:19.543Z,35.32
2019-02-26T16:08:07.090Z,35.74
2019-02-26T16:10:34.684Z,35.85
2019-02-26T16:13:04.901Z,36.09
2019-02-26T16:15:33.171Z,36.25
2019-02-26T16:18:00.272Z,36.45
2019-02-26T16:20:35.881Z,36.38
2019-02-26T16:26:38.466Z,37.14
2019-02-26T16:29:18.790Z,37.53
2019-02-26T16:32:29.319Z,38.20
2019-02-26T16:34:56.794Z,38.34
2019-02-26T16:37:45.667Z,38.91
2019-02-26T16:43:35.714Z,40.02
2019-02-26T16:46:14.505Z,40.67
2019-02-26T16:48:42.218Z,41.23
2019-02-26T16:51:09.302Z,41.69
2019-02-26T16:53:57.767Z,42.13
2019-02-26T16:56:24.999Z,42.48
2019-02-26T16:59:07.427Z,43.10
2019-02-26T17:08:17.355Z,44.15
2019-02-26T17:10:44.538Z,44.87
2019-02-26T17:13:11.730Z,45.45
2019-02-26T17:15:38.961Z,46.51
2019-02-26T17:18:16.093Z,47.95
2019-02-26T17:20:49.442Z,48.18
2019-02-26T17:25:54.655Z,47.87
2019-02-26T17:31:23.200Z,48.24
2019-02-26T17:42:33.379Z,49.64
2019-02-26T17:45:13.618Z,50.19
2019-02-26T17:48:00.541Z,50.51
2019-02-26T17:53:49.316Z,51.14
2019-02-26T17:56:28.769Z,51.24
2019-02-26T17:58:56.306Z,51.54
2019-02-26T18:01:23.930Z,51.85
2019-02-26T18:03:51.119Z,51.91
2019-02-26T18:06:18.747Z,52.59
2019-02-26T18:11:47.681Z,53.44
2019-02-26T18:14:15.051Z,53.82
2019-02-26T18:16:44.175Z,54.42
2019-02-26T18:19:13.036Z,54.76
2019-02-26T18:21:43.409Z,55.44
2019-02-26T18:24:19.737Z,55.96
2019-02-26T18:26:47.005Z,56.51
2019-02-26T18:29:26.222Z,56.31
2019-02-26T18:34:32.795Z,56.99
2019-02-26T18:37:00.014Z,57.60
2019-02-26T18:39:27.633Z,57.61
2019-02-26T18:41:55.000Z,57.96
2019-02-26T18:44:22.224Z,57.99
2019-02-26T18:46:49.405Z,58.38
2019-02-26T18:49:16.828Z,59.06
2019-02-26T18:51:44.029Z,59.13
2019-02-26T18:54:54.251Z,59.73
2019-02-26T18:57:27.507Z,60.07
2019-02-26T18:59:54.763Z,60.16
2019-02-26T19:02:22.247Z,61.02
2019-02-26T19:04:49.446Z,61.31
2019-02-26T19:07:16.681Z,61.46
2019-02-26T19:09:45.107Z,61.69
2019-02-26T19:12:22.876Z,62.13
2019-02-26T19:18:23.829Z,62.96
2019-02-26T19:20:51.049Z,63.46
2019-02-26T19:23:18.649Z,63.66
2019-02-26T19:25:45.904Z,64.09
2019-02-26T19:28:13.793Z,64.63
2019-02-26T19:30:41.569Z,65.08
2019-02-26T19:33:08.770Z,65.40
2019-02-26T19:35:40.181Z,65.50
2019-02-26T19:38:11.830Z,65.84
2019-02-26T19:44:14.205Z,66.05
2019-02-26T19:46:42.130Z,66.00
2019-02-26T19:49:09.314Z,66.00
2019-02-26T19:51:36.552Z,66.41
2019-02-26T19:54:04.743Z,66.59
2019-02-26T19:57:14.381Z,66.73
2019-02-26T20:00:01.176Z,66.78
2019-02-26T20:02:48.140Z,67.46
2019-02-26T20:05:15.374Z,67.33
2019-02-26T20:07:42.613Z,67.45
2019-02-26T20:13:12.614Z,67.28
2019-02-26T20:15:59.914Z,67.11
2019-02-26T20:18:27.168Z,66.40
2019-02-26T20:21:35.127Z,65.53
2019-02-26T20:24:02.616Z,64.69
2019-02-26T20:26:29.995Z,63.50
2019-02-26T20:29:16.715Z,62.33
2019-02-26T20:31:44.368Z,61.16
2019-02-26T20:37:13.101Z,60.03
2019-02-26T20:39:40.911Z,59.78
2019-02-26T20:42:19.557Z,59.98
2019-02-26T20:44:46.983Z,60.72
2019-02-26T20:47:14.243Z,61.41
2019-02-26T20:49:43.660Z,62.41
2019-02-26T20:58:31.828Z,62.59
2019-02-26T21:00:59.387Z,62.33
2019-02-26T21:03:37.744Z,61.69
2019-02-26T21:06:18.065Z,60.64
2019-02-26T21:08:45.916Z,59.42
2019-02-26T21:11:44.944Z,58.98
2019-02-26T21:14:12.240Z,58.93
2019-02-26T21:16:41.257Z,59.45
2019-02-26T21:19:08.976Z,59.58
2019-02-26T21:21:36.246Z,59.73
2019-02-26T21:24:03.467Z,59.03
2019-02-26T21:26:30.692Z,58.16
2019-02-26T21:29:11.911Z,56.69
2019-02-26T21:31:58.575Z,55.64
2019-02-26T21:34:47.495Z,54.67
2019-02-26T21:37:34.173Z,55.09
2019-02-26T21:40:01.419Z,55.39
2019-02-26T21:42:30.511Z,55.42
2019-02-26T21:50:54.515Z,50.98
2019-02-26T21:53:27.549Z,50.16
2019-02-26T21:55:55.650Z,49.09
2019-02-26T21:58:33.699Z,53.29
2019-02-26T22:01:00.918Z,52.56
2019-02-26T22:03:29.887Z,53.99
2019-02-26T22:06:05.067Z,55.86
2019-02-26T22:09:05.314Z,59.94
2019-02-26T22:11:33.199Z,61.52
2019-02-26T22:14:02.951Z,62.37
2019-02-26T22:16:35.530Z,63.68
2019-02-26T22:19:04.773Z,64.52
2019-02-26T22:22:28.089Z,65.58
2019-02-26T22:24:55.342Z,66.90
2019-02-26T22:27:22.518Z,67.58
2019-02-26T22:30:09.232Z,68.34
2019-02-26T22:32:38.782Z,68.81
2019-02-26T22:35:52.931Z,68.75
2019-02-26T22:38:39.897Z,68.55
2019-02-26T22:41:07.158Z,69.17
2019-02-26T22:43:36.176Z,69.01
2019-02-26T22:46:46.010Z,69.16
2019-02-26T22:54:54.619Z,68.80
2019-02-26T23:00:56.363Z,70.17
2019-02-26T23:03:23.540Z,70.15
2019-02-26T23:05:50.635Z,70.37
2019-02-26T23:11:52.421Z,71.20
2019-02-26T23:14:39.412Z,72.00
2019-02-26T23:17:47.312Z,72.57
2019-02-26T23:20:46.480Z,72.75
2019-02-26T23:27:07.713Z,73.48
2019-02-26T23:38:38.488Z,72.80
2019-02-26T23:41:46.484Z,73.26
2019-02-26T23:44:25.918Z,73.44
2019-02-26T23:46:53.079Z,73.10
2019-02-26T23:52:22.259Z,72.22
2019-02-26T23:54:49.878Z,71.91
2019-02-26T23:57:58.581Z,71.84
